Time;durP1;ratioP1;P1;durP2;ratioP2;P2;SDS_P1;SDS_P2;PMS_P1;PMS_P2;Temp;Humidity;BMP_temperature;BMP_pressure;BME280_temperature;BME280_humidity;BME280_pressure;Samples;Min_cycle;Max_cycle;Signal;HPM_P1;HPM_P2
2022/05/16 00:00:12;;;;;;;6.13;3.45;;;;;;;;;;4943164;28;20031;-68
2022/05/16 00:02:38;;;;;;;4.55;3.40;;;;;;;;;;4927207;28;20159;-68
2022/05/16 00:05:05;;;;;;;4.03;3.03;;;;;;;;;;4943110;28;20122;-68
2022/05/16 00:07:30;;;;;;;3.95;3.00;;;;;;;;;;4941922;28;20039;-68
2022/05/16 00:09:56;;;;;;;4.72;3.30;;;;;;;;;;4942996;28;20039;-68
2022/05/16 00:12:21;;;;;;;4.47;3.20;;;;;;;;;;4943543;28;20058;-68
2022/05/16 00:14:47;;;;;;;7.68;3.40;;;;;;;;;;4950762;28;20045;-68
2022/05/16 00:17:13;;;;;;;6.03;3.22;;;;;;;;;;4945318;28;20102;-68
2022/05/16 00:19:39;;;;;;;6.72;4.18;;;;;;;;;;4950034;28;20042;-68
2022/05/16 00:22:05;;;;;;;7.28;4.57;;;;;;;;;;4943154;28;20066;-68
2022/05/16 00:24:32;;;;;;;7.35;4.75;;;;;;;;;;4943029;28;20049;-68
2022/05/16 00:27:01;;;;;;;12.65;6.03;;;;;;;;;;4942992;28;20035;-68
2022/05/16 00:29:27;;;;;;;5.57;4.10;;;;;;;;;;4941606;28;20519;-68
2022/05/16 00:31:54;;;;;;;5.75;4.10;;;;;;;;;;4944882;28;20046;-68
2022/05/16 00:34:21;;;;;;;6.53;5.35;;;;;;;;;;4941938;28;20035;-68
2022/05/16 00:36:47;;;;;;;6.25;4.78;;;;;;;;;;4942949;28;20031;-68
2022/05/16 00:39:15;;;;;;;8.57;3.95;;;;;;;;;;4941758;28;20127;-68
2022/05/16 00:41:41;;;;;;;10.45;5.95;;;;;;;;;;4942591;28;20034;-68
2022/05/16 00:44:06;;;;;;;12.18;5.32;;;;;;;;;;4942912;28;20459;-68
2022/05/16 00:46:32;;;;;;;19.40;6.40;;;;;;;;;;4944567;28;20519;-68
2022/05/16 00:49:00;;;;;;;12.65;7.40;;;;;;;;;;4942526;28;21090;-68
2022/05/16 00:51:40;;;;;;;17.77;9.43;;;;;;;;;;4941998;28;20125;-68
2022/05/16 00:54:11;;;;;;;18.33;9.45;;;;;;;;;;4942870;28;20114;-68
2022/05/16 00:56:37;;;;;;;17.95;10.27;;;;;;;;;;4942763;28;20039;-68
2022/05/16 00:59:03;;;;;;;17.63;10.60;;;;;;;;;;4942721;28;20039;-68
2022/05/16 01:06:58;;;;;;;30.70;14.60;;;;;;;;;;4942594;28;20118;-68
2022/05/16 01:09:24;;;;;;;23.67;12.30;;;;;;;;;;4942322;28;20046;-68
2022/05/16 01:11:50;;;;;;;34.03;18.30;;;;;;;;;;4943031;28;20054;-68
2022/05/16 01:14:54;;;;;;;18.45;9.05;;;;;;;;;;4942644;28;20038;-68
2022/05/16 01:17:20;;;;;;;20.98;11.10;;;;;;;;;;4944292;28;20062;-68
2022/05/16 01:19:47;;;;;;;7.15;4.22;;;;;;;;;;4942046;28;20035;-68
2022/05/16 01:22:49;;;;;;;7.85;4.00;;;;;;;;;;4938075;28;20085;-68
2022/05/16 01:25:19;;;;;;;7.50;3.50;;;;;;;;;;4938848;28;20071;-68
2022/05/16 01:27:51;;;;;;;7.65;3.22;;;;;;;;;;4942828;28;20031;-68
2022/05/16 01:30:24;;;;;;;5.38;2.63;;;;;;;;;;4943950;28;20774;-68
2022/05/16 01:32:50;;;;;;;4.22;2.80;;;;;;;;;;4942784;28;20035;-68
2022/05/16 01:35:24;;;;;;;7.03;3.13;;;;;;;;;;4950208;28;20035;-68
2022/05/16 01:40:33;;;;;;;6.28;3.28;;;;;;;;;;4942515;28;20039;-68
2022/05/16 01:42:58;;;;;;;7.55;3.63;;;;;;;;;;4943149;28;20439;-68
2022/05/16 01:45:24;;;;;;;5.32;3.22;;;;;;;;;;4946527;28;20480;-68
2022/05/16 01:47:49;;;;;;;3.63;3.10;;;;;;;;;;4945857;28;20251;-68
2022/05/16 01:50:15;;;;;;;3.97;3.10;;;;;;;;;;4945270;28;20082;-68
2022/05/16 01:52:40;;;;;;;4.43;3.00;;;;;;;;;;4946047;28;20133;-68
2022/05/16 01:55:07;;;;;;;3.85;3.30;;;;;;;;;;4945299;28;20027;-68
2022/05/16 01:57:32;;;;;;;4.13;3.15;;;;;;;;;;4946797;28;20471;-68
2022/05/16 01:59:57;;;;;;;6.38;3.67;;;;;;;;;;4945128;28;20750;-68
2022/05/16 02:02:23;;;;;;;3.83;3.15;;;;;;;;;;4947468;28;20043;-68
2022/05/16 02:04:48;;;;;;;4.97;3.45;;;;;;;;;;4945835;28;20043;-68
2022/05/16 02:07:14;;;;;;;7.07;3.33;;;;;;;;;;4945569;28;20071;-67
2022/05/16 02:09:39;;;;;;;7.40;3.50;;;;;;;;;;4945200;28;20046;-68
2022/05/16 02:12:05;;;;;;;7.05;3.45;;;;;;;;;;4945318;28;20129;-68
2022/05/16 02:14:31;;;;;;;3.60;3.30;;;;;;;;;;4945516;28;20047;-68
2022/05/16 02:16:56;;;;;;;4.75;3.72;;;;;;;;;;4947163;28;20118;-68
2022/05/16 02:19:22;;;;;;;5.03;3.65;;;;;;;;;;4944150;28;20075;-68
2022/05/16 02:24:42;;;;;;;4.60;3.30;;;;;;;;;;4945152;28;20120;-68
2022/05/16 02:27:10;;;;;;;5.00;3.60;;;;;;;;;;4945167;28;20039;-68
2022/05/16 02:29:35;;;;;;;4.45;3.72;;;;;;;;;;4944519;28;20047;-68
2022/05/16 02:32:02;;;;;;;5.32;3.63;;;;;;;;;;4954730;28;20113;-68
2022/05/16 02:34:27;;;;;;;3.95;3.55;;;;;;;;;;4944816;28;20031;-68
2022/05/16 02:36:53;;;;;;;5.55;3.40;;;;;;;;;;4945333;28;20035;-67
2022/05/16 02:39:19;;;;;;;8.48;3.70;;;;;;;;;;4943725;28;20499;-68
2022/05/16 02:41:45;;;;;;;6.28;3.65;;;;;;;;;;4944718;28;20039;-68
2022/05/16 02:44:12;;;;;;;4.70;3.67;;;;;;;;;;4944925;28;20150;-68
2022/05/16 02:46:38;;;;;;;4.72;3.60;;;;;;;;;;4946218;28;20039;-67
2022/05/16 02:49:04;;;;;;;3.90;3.53;;;;;;;;;;4944650;28;20042;-67
2022/05/16 02:51:30;;;;;;;4.57;3.40;;;;;;;;;;4944822;28;20039;-67
2022/05/16 02:53:56;;;;;;;5.75;3.30;;;;;;;;;;4944705;28;20042;-67
2022/05/16 02:56:21;;;;;;;3.90;3.53;;;;;;;;;;4944362;28;20047;-68
2022/05/16 02:58:47;;;;;;;4.57;3.47;;;;;;;;;;4944381;28;20054;-67
2022/05/16 03:01:12;;;;;;;6.15;3.92;;;;;;;;;;4945778;28;20055;-68
2022/05/16 03:03:39;;;;;;;5.53;3.38;;;;;;;;;;4944307;28;20066;-68
2022/05/16 03:06:05;;;;;;;4.22;3.50;;;;;;;;;;4944660;28;20027;-68
2022/05/16 03:08:31;;;;;;;7.80;3.60;;;;;;;;;;4943721;28;20047;-68
2022/05/16 03:10:59;;;;;;;7.78;3.45;;;;;;;;;;4944803;28;20082;-68
2022/05/16 03:13:25;;;;;;;5.80;3.35;;;;;;;;;;4943843;28;20035;-68
2022/05/16 03:15:51;;;;;;;3.90;3.33;;;;;;;;;;4945724;28;20057;-68
2022/05/16 03:18:17;;;;;;;7.68;3.50;;;;;;;;;;4944337;28;20090;-68
2022/05/16 03:20:43;;;;;;;5.32;3.53;;;;;;;;;;4943820;28;20039;-67
2022/05/16 03:23:08;;;;;;;6.90;3.63;;;;;;;;;;4941491;28;20039;-68
2022/05/16 03:25:34;;;;;;;4.72;3.60;;;;;;;;;;4943356;28;20043;-68
2022/05/16 03:28:00;;;;;;;4.90;3.60;;;;;;;;;;4944328;28;20035;-68
2022/05/16 03:30:26;;;;;;;9.57;3.50;;;;;;;;;;4945245;28;20459;-68
2022/05/16 03:32:51;;;;;;;10.60;3.90;;;;;;;;;;4942654;28;20126;-68
2022/05/16 03:35:17;;;;;;;4.63;3.75;;;;;;;;;;4949452;28;20384;-67
2022/05/16 03:37:43;;;;;;;4.43;3.67;;;;;;;;;;4943339;28;20035;-67
2022/05/16 03:42:54;;;;;;;4.97;3.30;;;;;;;;;;4943892;28;20080;-67
2022/05/16 03:45:20;;;;;;;8.02;4.22;;;;;;;;;;4943022;28;20452;-67
2022/05/16 03:47:46;;;;;;;5.18;3.55;;;;;;;;;;4943813;28;20039;-67
2022/05/16 03:50:12;;;;;;;6.47;3.80;;;;;;;;;;4943428;28;20389;-67
2022/05/16 03:52:38;;;;;;;4.97;3.90;;;;;;;;;;4926285;28;20404;-67
2022/05/16 03:55:06;;;;;;;7.38;5.32;;;;;;;;;;4943485;28;20106;-68
2022/05/16 03:57:32;;;;;;;8.70;5.32;;;;;;;;;;4943771;28;20067;-67
2022/05/16 03:59:57;;;;;;;7.03;3.22;;;;;;;;;;4943084;28;20507;-67
2022/05/16 04:02:23;;;;;;;5.95;3.15;;;;;;;;;;4945220;28;20047;-68
2022/05/16 04:04:49;;;;;;;4.70;2.97;;;;;;;;;;4943228;28;20480;-68
2022/05/16 04:07:14;;;;;;;6.90;3.33;;;;;;;;;;4942728;28;20066;-68
2022/05/16 04:09:39;;;;;;;4.75;3.05;;;;;;;;;;4943518;28;20078;-68
2022/05/16 04:12:06;;;;;;;5.25;3.13;;;;;;;;;;4943449;28;20120;-68
2022/05/16 04:14:32;;;;;;;5.90;3.38;;;;;;;;;;4943353;28;20110;-68
2022/05/16 04:16:58;;;;;;;4.68;3.80;;;;;;;;;;4945221;28;20145;-67
2022/05/16 04:19:25;;;;;;;9.90;3.65;;;;;;;;;;4942797;28;20070;-68
2022/05/16 04:21:50;;;;;;;6.97;3.75;;;;;;;;;;4943111;28;20035;-68
2022/05/16 04:24:15;;;;;;;4.80;3.60;;;;;;;;;;4943778;28;20395;-67
2022/05/16 04:26:42;;;;;;;3.92;3.58;;;;;;;;;;4943476;28;20038;-68
2022/05/16 04:29:07;;;;;;;6.22;3.30;;;;;;;;;;4942152;28;20065;-68
2022/05/16 04:31:33;;;;;;;5.85;3.53;;;;;;;;;;4944726;28;20047;-68
2022/05/16 04:33:59;;;;;;;5.18;3.55;;;;;;;;;;4947909;28;20057;-68
2022/05/16 04:36:25;;;;;;;7.00;3.58;;;;;;;;;;4948591;28;20094;-68
2022/05/16 04:38:51;;;;;;;5.55;3.60;;;;;;;;;;4925042;28;20560;-68
2022/05/16 04:44:00;;;;;;;5.63;3.17;;;;;;;;;;4942898;28;21037;-68
2022/05/16 04:46:25;;;;;;;5.32;3.30;;;;;;;;;;4944832;28;20121;-68
2022/05/16 04:48:51;;;;;;;6.15;3.67;;;;;;;;;;4942311;28;20039;-68
2022/05/16 04:51:16;;;;;;;8.15;3.58;;;;;;;;;;4943218;28;20113;-68
2022/05/16 04:53:42;;;;;;;6.85;3.67;;;;;;;;;;4938945;28;20125;-68
2022/05/16 04:56:07;;;;;;;7.15;3.38;;;;;;;;;;4948798;28;20062;-68
2022/05/16 04:58:33;;;;;;;4.35;3.60;;;;;;;;;;4943935;28;20105;-68
2022/05/16 05:01:00;;;;;;;5.28;3.95;;;;;;;;;;4947045;28;20527;-69
2022/05/16 05:03:25;;;;;;;4.88;3.50;;;;;;;;;;4940926;28;20467;-68
2022/05/16 05:05:52;;;;;;;5.43;3.70;;;;;;;;;;4941899;28;20035;-68
2022/05/16 05:08:18;;;;;;;3.78;3.30;;;;;;;;;;4942761;28;20047;-67
2022/05/16 05:16:14;;;;;;;3.80;2.83;;;;;;;;;;4940484;28;20043;-68
2022/05/16 05:18:41;;;;;;;4.53;3.40;;;;;;;;;;4939841;28;21133;-68
2022/05/16 05:21:07;;;;;;;5.75;3.50;;;;;;;;;;4943807;28;20038;-68
2022/05/16 05:23:34;;;;;;;6.35;3.90;;;;;;;;;;4943374;28;20043;-68
2022/05/16 05:26:00;;;;;;;8.15;3.78;;;;;;;;;;4942004;28;20031;-68
2022/05/16 05:28:26;;;;;;;5.78;3.42;;;;;;;;;;4943222;28;20031;-68
2022/05/16 05:30:51;;;;;;;7.68;3.47;;;;;;;;;;4944686;28;20511;-68
2022/05/16 05:33:16;;;;;;;6.93;3.03;;;;;;;;;;4945107;28;20050;-68
2022/05/16 05:35:42;;;;;;;5.65;4.18;;;;;;;;;;4945369;28;20051;-68
2022/05/16 05:38:09;;;;;;;6.03;3.20;;;;;;;;;;4945995;28;20047;-68
2022/05/16 05:40:35;;;;;;;6.55;3.50;;;;;;;;;;4945130;28;20067;-68
2022/05/16 05:43:05;;;;;;;8.27;3.85;;;;;;;;;;4946123;28;20031;-68
2022/05/16 05:45:32;;;;;;;6.25;3.60;;;;;;;;;;4947401;28;20502;-68
2022/05/16 05:47:57;;;;;;;5.80;3.60;;;;;;;;;;4951930;28;20476;-70
2022/05/16 05:50:24;;;;;;;6.55;3.97;;;;;;;;;;4946674;28;20047;-68
2022/05/16 05:52:49;;;;;;;10.45;3.80;;;;;;;;;;4945755;28;20030;-68
2022/05/16 05:55:15;;;;;;;5.30;3.70;;;;;;;;;;4945728;28;20964;-68
2022/05/16 05:57:40;;;;;;;6.68;3.60;;;;;;;;;;4945148;28;20536;-68
2022/05/16 06:00:11;;;;;;;6.18;3.53;;;;;;;;;;4944672;28;20121;-70
2022/05/16 06:02:40;;;;;;;6.65;3.75;;;;;;;;;;4951376;28;20031;-69
2022/05/16 06:05:10;;;;;;;6.60;3.60;;;;;;;;;;4929226;28;20039;-68
2022/05/16 06:07:36;;;;;;;7.88;3.17;;;;;;;;;;4949949;28;20035;-68
2022/05/16 06:10:02;;;;;;;6.22;3.42;;;;;;;;;;4951277;28;20041;-68
2022/05/16 06:12:28;;;;;;;6.03;3.60;;;;;;;;;;4954026;28;20068;-69
2022/05/16 06:14:53;;;;;;;5.88;3.75;;;;;;;;;;4955464;28;20069;-68
2022/05/16 06:17:20;;;;;;;5.40;3.90;;;;;;;;;;4950505;28;20042;-68
2022/05/16 06:19:46;;;;;;;6.00;3.55;;;;;;;;;;4942252;28;20039;-68
2022/05/16 06:22:11;;;;;;;6.13;3.20;;;;;;;;;;4945037;28;20062;-68
2022/05/16 06:27:21;;;;;;;3.85;3.42;;;;;;;;;;4945166;28;20047;-67
2022/05/16 06:29:46;;;;;;;8.05;3.60;;;;;;;;;;4943439;28;20097;-67
2022/05/16 06:32:12;;;;;;;5.70;3.55;;;;;;;;;;4945927;28;20055;-67
2022/05/16 06:34:37;;;;;;;4.88;3.38;;;;;;;;;;4944775;28;20047;-67
2022/05/16 06:37:03;;;;;;;8.45;3.40;;;;;;;;;;4944888;28;20054;-67
2022/05/16 06:39:29;;;;;;;4.65;3.35;;;;;;;;;;4943437;28;20122;-67
2022/05/16 06:41:54;;;;;;;6.68;3.42;;;;;;;;;;4949837;28;20116;-67
2022/05/16 06:44:19;;;;;;;3.85;3.17;;;;;;;;;;4955790;28;20066;-67
2022/05/16 06:46:45;;;;;;;5.38;3.42;;;;;;;;;;4946844;28;20416;-67
2022/05/16 06:49:11;;;;;;;6.15;3.50;;;;;;;;;;4945298;28;20062;-70
2022/05/16 06:51:37;;;;;;;6.53;3.60;;;;;;;;;;4943549;28;20047;-69
2022/05/16 06:54:04;;;;;;;5.40;3.30;;;;;;;;;;4944722;28;20042;-69
2022/05/16 06:56:29;;;;;;;8.57;3.67;;;;;;;;;;4944075;28;20560;-70
2022/05/16 06:58:55;;;;;;;8.57;3.58;;;;;;;;;;4944301;28;20027;-69
2022/05/16 07:01:21;;;;;;;8.38;3.38;;;;;;;;;;4945366;28;20971;-70
2022/05/16 07:03:46;;;;;;;7.05;3.45;;;;;;;;;;4945143;28;20031;-69
2022/05/16 07:06:14;;;;;;;5.47;3.40;;;;;;;;;;4951042;28;20050;-69
2022/05/16 07:08:40;;;;;;;4.22;3.10;;;;;;;;;;4945084;28;20052;-70
2022/05/16 07:11:06;;;;;;;9.73;3.10;;;;;;;;;;4943948;28;20037;-70
2022/05/16 07:13:31;;;;;;;11.23;3.50;;;;;;;;;;4943022;28;20039;-70
2022/05/16 07:15:57;;;;;;;7.03;3.33;;;;;;;;;;4943781;28;20046;-70
2022/05/16 07:18:23;;;;;;;7.85;3.50;;;;;;;;;;4944004;28;21011;-70
2022/05/16 07:20:50;;;;;;;4.93;3.30;;;;;;;;;;4950412;28;20027;-69
2022/05/16 07:23:16;;;;;;;3.25;2.95;;;;;;;;;;4949812;28;20034;-70
2022/05/16 07:28:26;;;;;;;10.25;3.40;;;;;;;;;;4944168;28;20050;-69
2022/05/16 07:30:51;;;;;;;4.70;3.00;;;;;;;;;;4945149;28;20043;-69
2022/05/16 07:33:19;;;;;;;7.85;3.50;;;;;;;;;;4943347;28;20027;-69
2022/05/16 07:35:45;;;;;;;6.75;3.45;;;;;;;;;;4943226;28;20035;-69
2022/05/16 07:38:10;;;;;;;3.92;3.13;;;;;;;;;;4943144;28;20047;-70
2022/05/16 07:40:37;;;;;;;6.60;3.22;;;;;;;;;;4942442;28;20137;-68
2022/05/16 07:43:04;;;;;;;11.23;3.28;;;;;;;;;;4941992;28;20027;-68
2022/05/16 07:45:31;;;;;;;6.47;3.30;;;;;;;;;;4943825;28;20071;-68
2022/05/16 07:48:00;;;;;;;6.32;3.00;;;;;;;;;;4942165;28;20130;-68
2022/05/16 07:50:25;;;;;;;11.88;3.22;;;;;;;;;;4942202;28;20047;-68
2022/05/16 07:52:51;;;;;;;5.40;3.28;;;;;;;;;;4942100;28;20035;-68
2022/05/16 07:55:23;;;;;;;4.07;3.25;;;;;;;;;;4941947;28;20441;-67
2022/05/16 07:57:48;;;;;;;;;;;;;;;;;;4942622;28;20062;-68
2022/05/16 08:00:15;;;;;;;4.38;2.75;;;;;;;;;;4942955;28;20922;-68
2022/05/16 08:02:40;;;;;;;5.18;2.70;;;;;;;;;;4944298;28;20065;-68
2022/05/16 08:05:13;;;;;;;6.88;2.22;;;;;;;;;;4942468;28;20468;-68
2022/05/16 08:10:29;;;;;;;4.90;2.50;;;;;;;;;;4943824;28;20484;-68
2022/05/16 08:10:29;;;;;;;3.80;2.70;;;;;;;;;;4942100;28;20043;-69
2022/05/16 08:12:55;;;;;;;2.97;2.38;;;;;;;;;;4951327;28;20122;-68
2022/05/16 08:15:21;;;;;;;2.20;1.95;;;;;;;;;;4944662;28;20118;-68
2022/05/16 08:17:46;;;;;;;3.42;2.22;;;;;;;;;;4943030;28;20462;-68
2022/05/16 08:20:12;;;;;;;3.65;2.60;;;;;;;;;;4941734;28;20050;-68
2022/05/16 08:22:38;;;;;;;3.35;2.33;;;;;;;;;;4926549;28;20043;-68
2022/05/16 08:25:04;;;;;;;3.05;2.60;;;;;;;;;;4943307;28;20046;-68
2022/05/16 08:27:29;;;;;;;4.55;2.00;;;;;;;;;;4942679;28;20031;-69
2022/05/16 08:29:55;;;;;;;4.93;2.30;;;;;;;;;;4942695;28;20093;-69
2022/05/16 08:32:23;;;;;;;5.15;2.22;;;;;;;;;;4926491;28;20068;-70
2022/05/16 08:34:50;;;;;;;4.32;2.25;;;;;;;;;;4942317;28;20039;-70
2022/05/16 08:40:03;;;;;;;4.40;2.63;;;;;;;;;;4942370;28;20070;-70
2022/05/16 08:42:44;;;;;;;3.70;2.30;;;;;;;;;;4944846;28;21247;-70
2022/05/16 08:45:17;;;;;;;4.70;2.42;;;;;;;;;;4943302;28;20082;-70
2022/05/16 08:48:03;;;;;;;3.45;2.30;;;;;;;;;;4942261;28;20039;-70
2022/05/16 08:50:42;;;;;;;3.97;2.40;;;;;;;;;;4943456;28;20039;-70
2022/05/16 08:53:18;;;;;;;4.35;2.42;;;;;;;;;;4944495;28;21048;-70
2022/05/16 08:55:55;;;;;;;4.30;2.00;;;;;;;;;;4946419;28;20027;-70
2022/05/16 08:58:38;;;;;;;5.03;2.33;;;;;;;;;;4946072;28;20043;-69
2022/05/16 09:01:08;;;;;;;4.13;2.30;;;;;;;;;;4948189;28;20082;-69
2022/05/16 09:03:47;;;;;;;3.95;2.38;;;;;;;;;;4946302;28;20035;-69
2022/05/16 09:06:26;;;;;;;82.22;18.33;;;;;;;;;;4946246;28;20125;-69
2022/05/16 09:08:56;;;;;;;6.90;1.75;;;;;;;;;;4945057;28;20123;-69
2022/05/16 09:12:00;;;;;;;4.05;1.73;;;;;;;;;;4946014;28;20145;-70
2022/05/16 09:14:42;;;;;;;4.05;2.33;;;;;;;;;;4945805;28;20054;-69
2022/05/16 09:17:31;;;;;;;;;;;;;;;;;;4946013;28;20523;-69
2022/05/16 09:20:11;;;;;;;3.00;1.63;;;;;;;;;;4936907;28;20380;-69
2022/05/16 09:22:43;;;;;;;2.03;1.50;;;;;;;;;;4946295;28;20049;-69
2022/05/16 09:25:26;;;;;;;1.70;1.52;;;;;;;;;;4946220;28;20489;-69
2022/05/16 09:30:42;;;;;;;2.03;1.52;;;;;;;;;;4947390;28;20039;-69
2022/05/16 09:33:18;;;;;;;2.95;1.85;;;;;;;;;;4946263;28;20035;-69
2022/05/16 09:36:00;;;;;;;2.85;1.52;;;;;;;;;;4946008;28;20125;-69
2022/05/16 09:38:25;;;;;;;2.75;1.70;;;;;;;;;;4946687;28;20039;-69
2022/05/16 09:40:54;;;;;;;2.65;1.80;;;;;;;;;;4945179;28;20035;-69
2022/05/16 09:43:23;;;;;;;2.67;1.70;;;;;;;;;;4952625;28;20102;-69
2022/05/16 09:46:01;;;;;;;2.60;1.42;;;;;;;;;;4948049;28;20082;-69
2022/05/16 09:48:27;;;;;;;1.83;1.50;;;;;;;;;;4945283;28;20178;-69
2022/05/16 09:51:00;;;;;;;5.15;1.73;;;;;;;;;;4944749;28;20134;-69
2022/05/16 09:53:36;;;;;;;5.70;1.67;;;;;;;;;;4945970;28;20043;-69
2022/05/16 09:56:26;;;;;;;3.13;1.60;;;;;;;;;;4945614;28;20085;-70
2022/05/16 09:58:54;;;;;;;2.30;1.40;;;;;;;;;;4936942;28;20042;-69
2022/05/16 10:01:51;;;;;;;6.07;1.73;;;;;;;;;;4946080;28;20039;-69
2022/05/16 10:04:19;;;;;;;2.97;1.60;;;;;;;;;;4948617;28;20042;-69
2022/05/16 10:07:03;;;;;;;3.58;1.80;;;;;;;;;;4945732;28;20050;-69
2022/05/16 10:09:32;;;;;;;4.85;1.50;;;;;;;;;;4944891;28;20042;-69
2022/05/16 10:11:57;;;;;;;2.28;1.67;;;;;;;;;;4945802;28;20039;-69
2022/05/16 10:14:23;;;;;;;2.22;1.70;;;;;;;;;;4945157;28;20065;-69
2022/05/16 10:16:51;;;;;;;7.10;1.70;;;;;;;;;;4946810;28;20046;-69
2022/05/16 10:19:26;;;;;;;2.33;1.50;;;;;;;;;;4944931;28;20039;-71
2022/05/16 10:22:13;;;;;;;3.83;1.40;;;;;;;;;;4944064;28;20035;-70
2022/05/16 10:24:44;;;;;;;2.80;1.48;;;;;;;;;;4944323;28;21101;-71
2022/05/16 10:27:12;;;;;;;3.30;1.40;;;;;;;;;;4945381;28;20042;-71
2022/05/16 10:29:45;;;;;;;2.10;1.40;;;;;;;;;;4944886;28;20039;-69
2022/05/16 10:35:24;;;;;;;1.45;1.15;;;;;;;;;;4944354;28;20409;-71
2022/05/16 10:37:54;;;;;;;4.05;1.20;;;;;;;;;;4945173;28;20039;-71
2022/05/16 10:40:41;;;;;;;3.35;1.50;;;;;;;;;;4945076;28;20046;-70
2022/05/16 10:43:25;;;;;;;2.50;1.60;;;;;;;;;;4944188;28;20516;-71
2022/05/16 10:45:57;;;;;;;2.42;1.40;;;;;;;;;;4949434;28;20053;-70
2022/05/16 10:48:36;;;;;;;1.73;1.40;;;;;;;;;;4946617;28;20054;-70
2022/05/16 10:51:25;;;;;;;6.63;1.70;;;;;;;;;;4950260;28;20466;-69
2022/05/16 10:54:07;;;;;;;1.90;1.70;;;;;;;;;;4944813;28;20050;-72
2022/05/16 10:57:13;;;;;;;4.68;1.50;;;;;;;;;;4944973;28;20063;-70
2022/05/16 11:00:09;;;;;;;7.65;2.00;;;;;;;;;;4939011;28;20051;-70
2022/05/16 11:02:50;;;;;;;4.63;1.75;;;;;;;;;;4943692;28;20518;-70
2022/05/16 11:05:21;;;;;;;1.98;1.50;;;;;;;;;;4943749;28;20074;-71
2022/05/16 11:08:11;;;;;;;3.65;1.80;;;;;;;;;;4944082;28;20105;-71
2022/05/16 11:11:19;;;;;;;2.50;1.40;;;;;;;;;;4944123;28;20977;-70
2022/05/16 11:14:11;;;;;;;2.58;1.40;;;;;;;;;;4944531;28;20046;-71
2022/05/16 11:16:39;;;;;;;1.30;1.20;;;;;;;;;;4944348;28;20448;-70
2022/05/16 11:19:25;;;;;;;2.35;1.60;;;;;;;;;;4948483;28;20496;-71
2022/05/16 11:22:02;;;;;;;1.35;1.25;;;;;;;;;;4944543;28;20039;-69
2022/05/16 11:24:43;;;;;;;3.72;1.40;;;;;;;;;;4944975;28;20064;-72
2022/05/16 11:27:34;;;;;;;2.95;1.35;;;;;;;;;;4947885;28;20035;-70
2022/05/16 11:30:15;;;;;;;1.58;1.45;;;;;;;;;;4953552;28;20027;-69
2022/05/16 11:32:56;;;;;;;1.92;1.50;;;;;;;;;;4953153;28;20043;-70
2022/05/16 11:35:31;;;;;;;4.00;1.80;;;;;;;;;;4951015;28;20105;-69
2022/05/16 11:38:10;;;;;;;4.93;1.40;;;;;;;;;;4943186;28;20035;-70
2022/05/16 11:41:01;;;;;;;1.80;1.42;;;;;;;;;;4943425;28;20039;-69
2022/05/16 11:43:30;;;;;;;1.45;1.25;;;;;;;;;;4943531;28;20042;-71
2022/05/16 11:46:28;;;;;;;3.10;1.48;;;;;;;;;;4941648;28;20039;-70
2022/05/16 11:49:14;;;;;;;1.35;1.25;;;;;;;;;;4943020;28;20062;-71
2022/05/16 11:51:48;;;;;;;1.38;1.05;;;;;;;;;;4949869;28;20043;-71
2022/05/16 11:54:20;;;;;;;1.70;1.15;;;;;;;;;;4947716;28;20093;-69
2022/05/16 12:02:28;;;;;;;2.38;1.20;;;;;;;;;;4942604;28;20920;-74
2022/05/16 12:05:32;;;;;;;2.35;1.10;;;;;;;;;;4942140;28;20114;-71
2022/05/16 12:08:28;;;;;;;3.35;1.30;;;;;;;;;;4943772;28;20054;-71
2022/05/16 12:11:16;;;;;;;3.58;1.50;;;;;;;;;;4940530;28;20050;-71
2022/05/16 12:14:10;;;;;;;1.75;1.20;;;;;;;;;;4940016;28;20855;-68
2022/05/16 12:16:51;;;;;;;1.73;1.35;;;;;;;;;;4948920;28;20086;-69
2022/05/16 12:19:30;;;;;;;1.20;1.10;;;;;;;;;;4942148;28;20058;-72
2022/05/16 12:22:05;;;;;;;1.42;1.23;;;;;;;;;;4947343;28;20082;-69
2022/05/16 12:24:33;;;;;;;2.50;1.60;;;;;;;;;;4951801;28;20547;-72
2022/05/16 12:27:16;;;;;;;2.75;1.42;;;;;;;;;;4948379;28;20035;-72
2022/05/16 12:29:47;;;;;;;3.42;1.65;;;;;;;;;;4942648;28;20078;-69
2022/05/16 12:32:38;;;;;;;3.30;1.20;;;;;;;;;;4944330;28;20057;-68
2022/05/16 12:35:07;;;;;;;6.65;1.60;;;;;;;;;;4923711;28;20031;-70
2022/05/16 12:37:34;;;;;;;18.35;2.03;;;;;;;;;;4925881;28;20389;-69
2022/05/16 12:40:03;;;;;;;2.10;1.30;;;;;;;;;;4942706;28;20045;-69
2022/05/16 12:43:00;;;;;;;4.15;1.63;;;;;;;;;;4942646;28;20618;-69
2022/05/16 12:45:42;;;;;;;2.05;1.30;;;;;;;;;;4945068;28;20039;-69
2022/05/16 12:48:48;;;;;;;4.05;1.48;;;;;;;;;;4943171;28;20488;-69
2022/05/16 12:51:28;;;;;;;1.35;1.25;;;;;;;;;;4942502;28;20039;-72
2022/05/16 12:54:21;;;;;;;2.42;1.38;;;;;;;;;;4941910;28;20094;-70
2022/05/16 12:56:51;;;;;;;1.90;1.30;;;;;;;;;;4943022;28;20062;-69
2022/05/16 12:59:19;;;;;;;1.60;1.30;;;;;;;;;;4943489;28;20097;-71
2022/05/16 13:02:13;;;;;;;1.65;1.30;;;;;;;;;;4945232;28;20057;-68
2022/05/16 13:05:11;;;;;;;2.00;1.40;;;;;;;;;;4942361;28;20050;-68
2022/05/16 13:08:01;;;;;;;5.13;1.63;;;;;;;;;;4918580;28;20536;-68
2022/05/16 13:10:34;;;;;;;3.50;1.58;;;;;;;;;;4942229;28;20069;-71
2022/05/16 13:13:09;;;;;;;4.57;1.30;;;;;;;;;;4943233;28;20038;-68
2022/05/16 13:15:46;;;;;;;1.63;1.42;;;;;;;;;;4943886;28;20041;-67
2022/05/16 13:18:21;;;;;;;2.15;1.40;;;;;;;;;;4942055;28;20690;-73
2022/05/16 13:20:50;;;;;;;4.72;1.25;;;;;;;;;;4942502;28;20047;-69
2022/05/16 13:23:16;;;;;;;11.13;1.70;;;;;;;;;;4942573;28;20755;-69
2022/05/16 13:31:09;;;;;;;4.43;1.67;;;;;;;;;;4927863;28;20122;-69
2022/05/16 13:33:39;;;;;;;2.28;1.70;;;;;;;;;;4947629;28;20019;-72
2022/05/16 13:36:20;;;;;;;3.78;1.45;;;;;;;;;;4948339;28;20130;-70
2022/05/16 13:38:53;;;;;;;;;;;;;;;;;;4948407;28;20043;-69
2022/05/16 13:41:26;;;;;;;8.77;1.48;;;;;;;;;;4948264;28;19966;-71
2022/05/16 13:43:53;;;;;;;1.92;1.50;;;;;;;;;;4949755;28;20050;-70
2022/05/16 13:46:20;;;;;;;3.08;1.60;;;;;;;;;;4950032;28;20067;-70
2022/05/16 13:48:56;;;;;;;5.15;1.70;;;;;;;;;;4951014;28;20070;-69
2022/05/16 13:51:22;;;;;;;2.50;1.48;;;;;;;;;;4948206;28;20031;-70
2022/05/16 13:53:48;;;;;;;3.17;1.23;;;;;;;;;;4952064;28;20464;-70
2022/05/16 13:56:13;;;;;;;10.13;2.03;;;;;;;;;;4949169;28;20043;-69
2022/05/16 13:58:39;;;;;;;3.53;1.40;;;;;;;;;;4948339;28;20142;-70
2022/05/16 14:01:21;;;;;;;3.05;1.50;;;;;;;;;;4950812;28;20034;-69
2022/05/16 14:04:01;;;;;;;2.55;1.52;;;;;;;;;;4932300;28;20038;-72
2022/05/16 14:06:53;;;;;;;1.52;1.30;;;;;;;;;;4947819;28;20069;-71
2022/05/16 14:09:24;;;;;;;;;;;;;;;;;;4951204;28;20428;-70
2022/05/16 14:11:51;;;;;;;4.75;1.50;;;;;;;;;;4949415;28;19925;-71
2022/05/16 14:14:21;;;;;;;3.75;1.30;;;;;;;;;;4949025;28;20041;-70
2022/05/16 14:16:56;;;;;;;4.30;1.73;;;;;;;;;;4950560;28;20039;-71
2022/05/16 14:19:34;;;;;;;1.55;1.40;;;;;;;;;;4948735;28;20047;-69
2022/05/16 14:22:07;;;;;;;2.60;1.55;;;;;;;;;;4950503;28;20034;-69
2022/05/16 14:24:44;;;;;;;2.58;1.70;;;;;;;;;;4948271;28;20078;-70
2022/05/16 14:27:39;;;;;;;2.58;1.60;;;;;;;;;;4950543;28;20046;-69
2022/05/16 14:30:20;;;;;;;8.95;1.90;;;;;;;;;;4952551;28;20038;-69
2022/05/16 14:32:51;;;;;;;3.83;1.60;;;;;;;;;;4950857;28;20039;-70
2022/05/16 14:35:27;;;;;;;2.03;1.40;;;;;;;;;;4944769;28;20612;-69
2022/05/16 14:37:55;;;;;;;3.13;1.67;;;;;;;;;;4950283;28;20118;-69
2022/05/16 14:40:24;;;;;;;2.00;1.63;;;;;;;;;;4946120;28;20050;-69
2022/05/16 14:43:28;;;;;;;5.75;1.67;;;;;;;;;;4943947;28;20039;-69
2022/05/16 14:48:39;;;;;;;1.55;1.40;;;;;;;;;;4946718;28;20055;-72
2022/05/16 14:51:09;;;;;;;4.20;1.60;;;;;;;;;;4951138;28;20043;-69
2022/05/16 14:53:35;;;;;;;4.68;1.55;;;;;;;;;;4944469;28;20043;-72
2022/05/16 14:56:01;;;;;;;5.55;1.60;;;;;;;;;;4927594;28;20058;-69
2022/05/16 14:58:27;;;;;;;4.28;1.52;;;;;;;;;;4944317;28;20035;-69
2022/05/16 15:06:22;;;;;;;2.85;1.70;;;;;;;;;;4945525;28;20035;-72
2022/05/16 15:08:51;;;;;;;3.22;1.50;;;;;;;;;;4943694;28;20039;-71
2022/05/16 15:11:20;;;;;;;3.20;1.80;;;;;;;;;;4943305;28;20778;-70
2022/05/16 15:13:45;;;;;;;4.40;1.80;;;;;;;;;;4944135;28;20035;-71
2022/05/16 15:16:11;;;;;;;3.72;1.70;;;;;;;;;;4929170;28;20102;-69
2022/05/16 15:18:37;;;;;;;3.00;1.65;;;;;;;;;;4944475;28;20042;-69
2022/05/16 15:21:04;;;;;;;3.85;2.03;;;;;;;;;;4943848;28;20039;-69
2022/05/16 15:23:31;;;;;;;5.47;1.90;;;;;;;;;;4943574;28;20106;-69
2022/05/16 15:25:57;;;;;;;2.72;1.92;;;;;;;;;;4943449;28;20039;-70
2022/05/16 15:28:23;;;;;;;1.88;1.70;;;;;;;;;;4943918;28;20094;-73
2022/05/16 15:30:49;;;;;;;3.42;1.90;;;;;;;;;;4945086;28;20487;-70
2022/05/16 15:33:15;;;;;;;2.53;1.50;;;;;;;;;;4943773;28;20146;-70
2022/05/16 15:35:44;;;;;;;2.75;1.80;;;;;;;;;;4949182;28;20106;-72
2022/05/16 15:38:10;;;;;;;5.93;1.88;;;;;;;;;;4926401;28;20039;-73
2022/05/16 15:40:38;;;;;;;5.20;1.55;;;;;;;;;;4948887;28;20101;-70
2022/05/16 15:43:05;;;;;;;7.65;1.70;;;;;;;;;;4946098;28;20038;-70
2022/05/16 15:45:30;;;;;;;13.93;1.73;;;;;;;;;;4952847;28;20158;-70
2022/05/16 15:47:57;;;;;;;5.63;1.90;;;;;;;;;;4941990;28;20130;-69
2022/05/16 15:50:24;;;;;;;7.90;2.85;;;;;;;;;;4945258;28;20535;-71
2022/05/16 15:52:50;;;;;;;12.35;2.58;;;;;;;;;;4942788;28;20035;-71
2022/05/16 15:55:18;;;;;;;12.88;2.50;;;;;;;;;;4950378;28;20039;-70
2022/05/16 15:57:44;;;;;;;11.43;2.97;;;;;;;;;;4946936;28;20035;-72
2022/05/16 16:00:12;;;;;;;12.00;2.85;;;;;;;;;;4943070;28;20035;-72